Medlin's Ranch, Nevada Weather observations

Data are for observation ending at time listed.
 Day   Time    Ave.   Ave.  Ave.  Vector   Max.   Stn.    Total    Solar   Ave.  
  of    of     Air    Rel.  Wind   Wind    Wind   Baro.  Precip.   Rad.    Soil  
Year   Day     Temp.  Hum.  Speed  Dir.    Gust   Pres.                    Temp. 
2015   (PST)    F      %     mph   deg.    mph     mb.     in.     W/m2     F   
------------------------------------------------------------------------------
 239   22:00   70.4    42    4.6   315      7.2    868     0.00       0    80.9
 239   23:00   70.4    38    4.3   291      6.1    867     0.00       0    79.6
 240    0:00   68.9    39    3.8   254      5.7    867     0.00       0    78.5
 240    1:00   65.7    47    4.2   314      7.1    867     0.00       0    77.5
 240    2:00   65.0    46    3.5   305      5.5    867     0.00       0    76.6
 240    3:00   64.7    43    3.1   296      5.1    867     0.00       0    75.8
 240    4:00   62.9    48    3.7   295      5.5    867     0.00       0    75.0
 240    5:00   62.8    46    3.1   286      5.3    867     0.00       0    74.2
 240    6:00   63.6    47    3.8   304      6.1    868     0.00      38    73.6
 240    7:00   76.0    31    2.3   311      4.4    868     0.00     211    73.1
 240    8:00   82.3    26    1.5    92      4.3    868     0.00     422    73.7
 240    9:00   84.5    25    3.1    99      7.9    868     0.00     618    76.0
 240   10:00   87.9    22    4.1   118      9.6    868     0.00     775    79.3
 240   11:00   90.5    21    4.9   124     12.6    867     0.00     881    83.3
 240   12:00   92.1    19    5.2   129     12.1    866     0.00     931    87.2
 240   13:00   93.1    16    6.3   141     16.3    866     0.00     731    90.6
 240   14:00   94.7    15    6.1   142     20.2    865     0.00     822    92.6
 240   15:00   94.3    15    6.2   132     16.8    864     0.00     534    93.3
 240   16:00   92.8    16    6.7   140     18.6    864     0.00     245    93.7
 240   17:00   92.4    17    7.5   146     16.7    864     0.00     209    93.1
 240   18:00   91.4    17    6.7   144     15.3    863     0.00     112    92.0
 240   19:00   86.2    22    4.4   150      8.5    863     0.00       4    90.8
 240   20:00   81.9    24    3.6   189     10.5    864     0.00       0    89.4
 240   21:00   79.1    26    3.0   200      5.2    864     0.00       0    87.8

Return to Medlin's Ranch, Nevada graphs page.


Western Regional Climate Center,wrcc@dri.edu